McConnell Air Force Base

Airport
ICAO code: 
KIAB
Summary
ICAO Region: 
NAM
Territory: 
Location: 
Wichita, Kansas,
Elevation: 
1371 ft
Coordinates: 
Aerial View: 
37° 38' 1.385" N, 97° 15' 35.206" W
Airport CFIT: 
Altimeter Temperature Error Correction
Airport LOS: 
Parallel Runway Operation
Metar
Observation
KIAB 040756Z AUTO 04011KT 10SM CLR 07/01 A3014 RMK AO2 SLP209 T00690008 $
Station
McConnell Air Force Base
Date/Time
2021-12-04 07:56:00
Wind direction
40°
Wind speed
11 kts
Lowest cloud amount
n/a
Temperature
6.9°C
Dew point
0.8°C
Humidity
65%
Weather condition
n/a

Description

McConnell Air Force Base is a United States Air Force installation located 6 km southeast of the central business district of Wichita, a city in Sedgwick County, Kansas.

Climatology

Humid “subtropical” climate (Köppen climate classification Cfa) - characterized by hot, humid summers and cool winters. Significant amounts of precipitation occur in all seasons with most falling during the summer. Winter snowfall is associated with large storms that the westerlies steer from west to east. Most summer rainfall occurs during thunderstorms.

Runways

Designator Length Width Surface Rops
01L/19R 3658 61 CON Yes/Yes
01R/19L 3658 91 PEM Yes/Yes
Airport map: 
Aerial View: 

SKYbrary Partners:

Safety knowledge contributed by: